Time;durP1;ratioP1;P1;durP2;ratioP2;P2;SDS_P1;SDS_P2;PMS_P1;PMS_P2;Temp;Humidity;BMP_temperature;BMP_pressure;BME280_temperature;BME280_humidity;BME280_pressure;Samples;Min_cycle;Max_cycle;Signal;HPM_P1;HPM_P2
2022/06/29 00:00:28;;;;;;;7.12;4.37;;;;;;;18.64;88.84;101127.50;4957935;59;1139018;-73
2022/06/29 00:05:35;;;;;;;5.00;4.35;;;;;;;18.56;88.70;101127.73;5057954;58;1139336;-74
2022/06/29 00:10:41;;;;;;;4.00;3.70;;;;;;;18.31;87.92;101122.34;5059305;58;1139328;-73
2022/06/29 00:15:47;;;;;;;4.87;4.20;;;;;;;17.96;88.24;101115.98;5035641;58;1139043;-74
2022/06/29 00:20:53;;;;;;;8.50;4.00;;;;;;;17.60;88.86;101111.05;5074124;58;1139256;-74
2022/06/29 00:25:58;;;;;;;4.50;4.10;;;;;;;17.53;90.00;101105.97;5074099;58;1139059;-74
2022/06/29 00:31:04;;;;;;;5.30;4.80;;;;;;;17.54;90.55;101098.29;5074164;58;1138353;-74
2022/06/29 00:36:12;;;;;;;4.83;4.37;;;;;;;17.74;91.54;101093.67;5074295;58;1139012;-73
2022/06/29 00:41:18;;;;;;;7.58;4.60;;;;;;;17.91;91.76;101078.13;5074105;58;1139043;-73
2022/06/29 00:46:23;;;;;;;5.90;4.80;;;;;;;17.95;90.30;101078.67;5063787;58;1139016;-74
2022/06/29 00:51:31;;;;;;;5.28;4.53;;;;;;;17.83;89.78;101080.24;5054559;58;1139090;-74
2022/06/29 00:56:37;;;;;;;4.42;4.12;;;;;;;17.92;90.60;101078.47;5054450;58;1139076;-73
2022/06/29 01:01:44;;;;;;;6.10;4.65;;;;;;;17.83;89.38;101084.25;5054566;58;1139008;-74
2022/06/29 01:06:49;;;;;;;8.33;4.30;;;;;;;17.67;89.82;101092.61;5061194;58;1139264;-74
2022/06/29 01:11:55;;;;;;;4.47;4.08;;;;;;;17.58;90.13;101089.80;5032864;58;1136946;-74
2022/06/29 01:17:02;;;;;;;6.00;3.92;;;;;;;17.48;89.96;101083.67;5042841;58;1137010;-74
2022/06/29 01:22:13;;;;;;;8.00;4.12;;;;;;;17.36;90.44;101076.01;5042891;58;1136909;-73
2022/06/29 01:27:20;;;;;;;6.17;4.17;;;;;;;17.51;91.67;101082.53;5043165;58;1137031;-74
2022/06/29 01:32:26;;;;;;;4.20;3.90;;;;;;;17.61;91.51;101087.31;5042861;58;1137082;-73
2022/06/29 01:37:31;;;;;;;6.73;4.30;;;;;;;17.71;91.58;101083.30;5042877;58;1136835;-73
2022/06/29 01:42:38;;;;;;;4.20;3.80;;;;;;;17.75;91.32;101096.69;4950098;59;1137040;-73
2022/06/29 01:47:44;;;;;;;4.42;4.03;;;;;;;17.79;90.89;101096.25;5028983;58;1136953;-74
2022/06/29 01:52:50;;;;;;;5.22;4.50;;;;;;;17.65;89.47;101103.45;5044999;58;1136971;-73
2022/06/29 01:57:56;;;;;;;4.95;4.45;;;;;;;17.56;90.22;101099.83;5045105;58;1136947;-74
2022/06/29 02:03:01;;;;;;;5.20;4.70;;;;;;;17.46;89.78;101082.97;5045540;58;1137113;-75
2022/06/29 02:08:07;;;;;;;4.97;4.53;;;;;;;17.22;89.47;101071.51;5056164;57;1137085;-75
2022/06/29 02:13:14;;;;;;;5.15;4.65;;;;;;;17.07;90.31;101066.80;5063403;57;1137075;-75
2022/06/29 02:18:20;;;;;;;4.87;4.47;;;;;;;17.16;91.38;101077.92;5084963;57;1137000;-74
2022/06/29 02:23:27;;;;;;;5.57;5.07;;;;;;;17.17;90.88;101065.75;5079198;57;1136982;-74
2022/06/29 02:28:33;;;;;;;5.47;4.80;;;;;;;17.07;90.38;101060.12;5072994;57;1136980;-74
2022/06/29 02:39:03;;;;;;;5.97;5.37;;;;;;;16.91;91.82;101031.84;5031515;57;1141173;-74
2022/06/29 02:44:09;;;;;;;8.68;5.17;;;;;;;16.89;92.33;101045.35;5066242;58;1138958;-74
2022/06/29 02:49:15;;;;;;;13.37;5.40;;;;;;;16.85;92.74;101044.80;5060919;57;1139033;-74
2022/06/29 02:54:21;;;;;;;6.27;5.67;;;;;;;16.81;93.39;101042.06;5114534;57;1141303;-74
2022/06/29 02:59:27;;;;;;;10.70;5.50;;;;;;;16.77;93.74;101028.67;5080111;57;1138962;-73
2022/06/29 03:04:34;;;;;;;9.93;4.97;;;;;;;16.75;94.55;101031.98;4984711;57;1141207;-74
2022/06/29 03:09:39;;;;;;;7.83;5.57;;;;;;;16.75;94.55;101031.98;5064625;57;1139226;-74
2022/06/29 03:14:46;;;;;;;10.13;6.37;;;;;;;16.83;94.76;101051.27;5070106;57;1138959;-74
2022/06/29 03:19:51;;;;;;;9.77;5.07;;;;;;;16.86;94.89;101059.00;5061614;57;1141101;-74
2022/06/29 03:24:57;;;;;;;7.13;5.13;;;;;;;16.91;94.51;101064.75;5054248;57;1139092;-74
2022/06/29 03:30:03;;;;;;;13.47;5.93;;;;;;;16.91;94.46;101059.91;5067176;57;1138977;-73
2022/06/29 03:35:10;;;;;;;8.43;5.80;;;;;;;16.87;94.50;101068.20;4994532;58;1141167;-74
2022/06/29 03:40:16;;;;;;;8.83;6.10;;;;;;;16.94;95.35;101077.83;5024856;58;1139155;-75
2022/06/29 03:45:22;;;;;;;7.60;5.40;;;;;;;16.95;94.53;101077.34;5065673;58;1139138;-74
2022/06/29 03:50:28;;;;;;;8.23;5.60;;;;;;;16.97;95.20;101076.66;5022314;58;1139154;-74
2022/06/29 03:55:34;;;;;;;27.60;7.07;;;;;;;17.00;95.46;101055.00;5064989;58;1138972;-74
2022/06/29 04:00:40;;;;;;;8.13;6.10;;;;;;;17.07;96.23;101061.45;5055985;58;1141122;-74
2022/06/29 04:05:46;;;;;;;6.63;4.90;;;;;;;17.06;95.80;101067.78;5052532;58;1139090;-74
2022/06/29 04:10:53;;;;;;;14.27;5.13;;;;;;;17.07;95.88;101057.45;5063889;58;1139212;-74
2022/06/29 04:15:58;;;;;;;6.47;5.13;;;;;;;17.09;96.57;101053.64;5057880;58;1141277;-74
2022/06/29 04:21:07;;;;;;;9.17;4.97;;;;;;;17.17;97.37;101071.10;5057958;58;1139250;-74
2022/06/29 04:26:13;;;;;;;6.27;5.20;;;;;;;17.27;97.81;101076.88;5058006;58;1139151;-73
2022/06/29 04:31:19;;;;;;;10.00;4.50;;;;;;;17.33;97.96;101074.47;5058058;58;1138980;-73
2022/06/29 04:36:25;;;;;;;5.00;3.47;;;;;;;17.39;97.87;101076.56;5058078;58;1141264;-74
2022/06/29 04:41:31;;;;;;;4.90;4.40;;;;;;;17.38;97.77;101066.85;5057975;58;1138932;-74
2022/06/29 04:46:37;;;;;;;7.80;4.37;;;;;;;17.38;97.37;101064.17;5057989;58;1139002;-73
2022/06/29 04:51:43;;;;;;;11.73;3.87;;;;;;;17.34;97.42;101064.61;5058022;58;1139021;-74
2022/06/29 04:56:49;;;;;;;9.30;4.57;;;;;;;17.35;97.79;101070.31;5057859;58;1141227;-74
2022/06/29 05:01:55;;;;;;;12.63;4.70;;;;;;;17.42;98.26;101065.54;5035975;58;1139296;-74
2022/06/29 05:07:01;;;;;;;5.73;3.73;;;;;;;17.52;98.60;101077.53;5005041;58;1141107;-74
2022/06/29 05:12:07;;;;;;;6.33;3.90;;;;;;;17.58;98.56;101072.41;5063061;58;1138941;-74
2022/06/29 05:17:13;;;;;;;11.80;4.37;;;;;;;17.70;98.61;101071.75;5079525;58;1138961;-74
2022/06/29 05:22:19;;;;;;;8.43;4.45;;;;;;;17.82;98.65;101071.87;5072909;58;1141332;-73
2022/06/29 05:27:25;;;;;;;4.30;3.15;;;;;;;17.97;98.64;101076.19;5078433;58;1138929;-74
2022/06/29 05:32:30;;;;;;;8.53;3.60;;;;;;;18.18;98.58;101065.17;5077586;57;1138999;-74
2022/06/29 05:37:37;;;;;;;11.97;3.75;;;;;;;18.37;98.44;101048.05;5074325;57;1138962;-74
2022/06/29 05:42:43;;;;;;;6.85;3.45;;;;;;;18.63;97.90;101044.09;5076854;57;1141071;-74
2022/06/29 05:47:49;;;;;;;5.92;3.27;;;;;;;18.77;97.42;101055.06;5085863;57;1137503;-74
2022/06/29 05:52:54;;;;;;;3.87;2.87;;;;;;;18.98;96.57;101060.86;5090185;57;1136877;-74
2022/06/29 05:58:00;;;;;;;4.50;2.80;;;;;;;19.14;95.07;101057.91;5108449;57;1136956;-74
2022/06/29 06:03:06;;;;;;;6.20;2.70;;;;;;;19.26;94.71;101044.04;5121066;57;1136881;-73
2022/06/29 06:08:18;;;;;;;13.50;2.47;;;;;;;19.31;94.04;101043.06;5042429;58;1137054;-74
2022/06/29 06:13:20;;;;;;;4.58;2.90;;;;;;;19.40;93.10;101060.01;5065321;58;1138987;-74
2022/06/29 06:18:25;;;;;;;11.18;2.80;;;;;;;19.42;92.88;101059.34;5054488;58;1136855;-74
2022/06/29 06:23:31;;;;;;;7.83;2.60;;;;;;;19.57;93.14;101054.22;5051484;57;1139061;-74
2022/06/29 06:28:37;;;;;;;5.55;2.33;;;;;;;19.61;92.03;101053.73;5092854;58;1137140;-74
2022/06/29 06:33:43;;;;;;;5.53;2.10;;;;;;;19.63;91.75;101046.86;4970025;59;1137140;-74
2022/06/29 06:38:48;;;;;;;7.65;2.95;;;;;;;19.61;91.02;101044.34;4959024;59;1136968;-74
2022/06/29 06:43:57;;;;;;;5.75;2.62;;;;;;;19.69;91.35;101031.96;4959219;59;1136953;-74
2022/06/29 06:49:03;;;;;;;11.08;2.67;;;;;;;19.76;91.65;101033.80;4883424;59;1136959;-74
2022/06/29 06:54:09;;;;;;;4.50;1.72;;;;;;;19.82;91.12;101037.17;4882868;59;1139200;-74
2022/06/29 06:59:15;;;;;;;12.55;2.87;;;;;;;19.91;90.64;101032.64;4877574;60;1136909;-74
2022/06/29 07:04:20;;;;;;;5.95;1.80;;;;;;;20.00;90.58;101027.13;4880550;60;1139000;-74
2022/06/29 07:09:26;;;;;;;8.28;2.30;;;;;;;20.02;90.22;101013.00;4950624;59;1136883;-75
2022/06/29 07:14:32;;;;;;;6.18;1.78;;;;;;;20.10;90.46;101017.55;4961812;59;1137068;-74
2022/06/29 07:19:37;;;;;;;3.10;1.90;;;;;;;20.18;89.68;101002.75;4962069;59;1134947;-74
2022/06/29 07:24:43;;;;;;;4.28;2.00;;;;;;;20.16;88.28;101006.14;4935826;59;1134768;-74
2022/06/29 07:29:52;;;;;;;4.78;2.98;;;;;;;20.14;88.23;101007.31;4936883;59;1138811;-76
2022/06/29 07:34:56;;;;;;;4.53;1.60;;;;;;;20.11;88.02;101008.48;4880424;60;1139006;-74
2022/06/29 07:40:02;;;;;;;2.43;1.67;;;;;;;20.26;88.18;101004.61;4859802;60;1138942;-74
2022/06/29 07:45:09;;;;;;;10.82;2.25;;;;;;;20.33;87.89;100989.47;4963715;59;1139049;-74
2022/06/29 07:50:15;;;;;;;5.10;1.90;;;;;;;20.44;88.33;100987.82;4968413;58;1141070;-74
2022/06/29 07:55:20;;;;;;;6.75;1.80;;;;;;;20.51;87.53;100988.79;5039028;58;1139045;-75
2022/06/29 08:00:26;;;;;;;4.60;1.42;;;;;;;20.62;87.96;100980.89;4958748;59;1139010;-75
2022/06/29 08:05:32;;;;;;;14.68;2.87;;;;;;;20.74;87.25;100989.41;5039360;58;1138975;-75
2022/06/29 08:10:37;;;;;;;6.87;1.75;;;;;;;20.69;86.88;100984.04;5031864;58;1141278;-75
2022/06/29 08:15:45;;;;;;;4.70;2.08;;;;;;;20.76;87.21;100993.61;5033379;57;1139029;-75
2022/06/29 08:20:50;;;;;;;4.30;2.50;;;;;;;20.79;86.35;101003.14;5067262;57;1139006;-75
2022/06/29 08:25:57;;;;;;;2.75;1.50;;;;;;;20.78;86.17;101002.31;4912393;59;1139039;-75
2022/06/29 08:31:03;;;;;;;2.87;1.90;;;;;;;20.76;85.42;100997.64;4947888;58;1139028;-74
2022/06/29 08:36:09;;;;;;;6.42;1.85;;;;;;;20.61;84.69;100978.70;4906135;59;1139052;-74
2022/06/29 08:41:15;;;;;;;7.65;1.82;;;;;;;20.53;85.07;100988.63;4953363;59;1138984;-75
2022/06/29 08:46:21;;;;;;;7.00;2.67;;;;;;;20.51;85.36;100974.52;4924605;59;1139017;-75
2022/06/29 08:51:31;;;;;;;9.68;2.25;;;;;;;20.62;85.54;100981.70;4921682;59;1139117;-75
2022/06/29 08:56:37;;;;;;;3.95;1.75;;;;;;;20.77;85.79;100989.91;4884091;59;1139025;-75
2022/06/29 09:01:44;;;;;;;4.87;2.00;;;;;;;20.95;85.22;100985.61;4943590;58;1139032;-76
2022/06/29 09:06:59;;;;;;;5.65;1.77;;;;;;;21.07;84.52;100988.27;4955388;59;1139003;-76
2022/06/29 09:12:05;;;;;;;3.70;1.77;;;;;;;21.18;84.86;100987.86;4971336;58;1139011;-75
2022/06/29 09:17:11;;;;;;;5.15;1.95;;;;;;;21.11;83.15;100994.11;4965079;59;1139011;-75
2022/06/29 09:22:17;;;;;;;4.20;1.82;;;;;;;20.97;83.67;101001.06;5041049;58;1139025;-75
2022/06/29 09:27:25;;;;;;;8.73;1.92;;;;;;;20.92;83.95;100997.58;5059615;58;1139026;-75
2022/06/29 09:32:31;;;;;;;2.05;1.50;;;;;;;20.98;83.81;101002.23;5058684;58;1139231;-76
2022/06/29 09:37:37;;;;;;;9.48;2.40;;;;;;;21.12;84.29;101003.34;4926143;59;1139052;-75
2022/06/29 09:42:43;;;;;;;7.85;1.85;;;;;;;21.21;84.25;101006.89;5066738;58;1139066;-76
2022/06/29 09:47:48;;;;;;;4.58;2.37;;;;;;;21.24;82.73;100994.41;5067871;58;1138996;-77
2022/06/29 09:52:57;;;;;;;8.10;2.10;;;;;;;21.28;83.23;100989.84;4951286;59;1139023;-76
2022/06/29 09:58:05;;;;;;;3.42;1.75;;;;;;;21.39;83.17;100978.67;5057367;58;1139056;-76
2022/06/29 10:03:12;;;;;;;3.45;2.58;;;;;;;21.53;82.73;100974.40;4958972;59;1138948;-76
2022/06/29 10:08:18;;;;;;;6.67;1.92;;;;;;;21.71;82.35;100972.72;5058362;58;1139013;-77
2022/06/29 10:13:43;;;;;;;7.42;1.82;;;;;;;21.88;82.25;100959.46;5059583;58;1139102;-76
2022/06/29 10:19:17;;;;;;;4.28;1.80;;;;;;;22.02;81.22;100948.42;4928175;59;1136911;-76
2022/06/29 10:24:23;;;;;;;2.98;1.37;;;;;;;22.24;80.31;100950.75;4962231;59;1136966;-77
2022/06/29 10:29:29;;;;;;;28.83;2.95;;;;;;;22.35;78.70;100962.41;4962144;59;1136958;-77
2022/06/29 10:34:40;;;;;;;4.47;1.60;;;;;;;22.38;78.48;100955.30;4954896;59;1139077;-77
2022/06/29 10:39:53;;;;;;;1.37;1.37;;;;;;;22.40;77.92;100947.88;4914238;59;1136969;-76
2022/06/29 10:45:02;;;;;;;4.03;2.20;;;;;;;22.50;78.87;100946.23;4924119;59;1137199;-76
2022/06/29 10:50:25;;;;;;;5.47;1.72;;;;;;;22.62;77.98;100942.05;4883393;60;1136977;-76
2022/06/29 10:55:33;;;;;;;11.50;2.07;;;;;;;22.77;77.89;100950.48;4914624;59;1139298;-76
2022/06/29 11:00:50;;;;;;;3.80;1.53;;;;;;;23.12;76.84;100938.55;4809318;60;1141183;-76
2022/06/29 11:16:58;;;;;;;9.48;1.42;;;;;;;24.18;73.28;100917.41;4969508;59;1139229;-76
2022/06/29 11:22:18;;;;;;;6.58;1.87;;;;;;;24.45;70.98;100914.37;4984595;59;1139147;-76
2022/06/29 11:27:38;;;;;;;4.85;1.65;;;;;;;24.65;71.50;100896.89;4984815;59;1139100;-75
2022/06/29 11:32:46;;;;;;;6.92;1.42;;;;;;;24.71;71.19;100882.05;4981662;59;1139075;-76
2022/06/29 11:38:01;;;;;;;3.77;1.25;;;;;;;24.92;67.48;100877.00;5001268;58;1138988;-77
2022/06/29 11:43:14;;;;;;;5.62;1.40;;;;;;;25.07;60.35;100872.80;4950760;58;1138988;-76
2022/06/29 11:48:27;;;;;;;20.37;2.25;;;;;;;25.30;65.17;100858.39;5042312;58;1139096;-76
2022/06/29 11:53:47;;;;;;;5.20;1.22;;;;;;;25.46;62.81;100845.80;4960470;58;1141064;-77
2022/06/29 11:58:57;;;;;;;6.70;1.42;;;;;;;25.52;60.65;100852.23;4912891;59;1139027;-77
2022/06/29 12:04:04;;;;;;;7.70;1.70;;;;;;;25.48;59.74;100850.48;5019489;58;1138973;-77
2022/06/29 12:09:10;;;;;;;3.60;1.20;;;;;;;25.64;58.42;100844.36;5012460;58;1137156;-77
2022/06/29 12:14:15;;;;;;;5.50;1.20;;;;;;;25.82;58.64;100844.53;5014010;58;1136896;-77
2022/06/29 12:19:21;;;;;;;2.17;1.05;;;;;;;25.97;60.17;100848.39;5073821;58;21208;-76
2022/06/29 12:24:33;;;;;;;3.37;1.32;;;;;;;26.11;59.30;100836.47;5086775;58;21174;-76
2022/06/29 12:29:35;;;;;;;1.56;1.06;;;;;;;26.39;57.26;100830.77;5066342;58;1135002;-74
2022/06/29 12:34:42;;;;;;;4.20;1.23;;;;;;;26.50;54.50;100835.52;5067855;58;1147743;-75
2022/06/29 12:39:48;;;;;;;1.40;0.88;;;;;;;26.47;54.53;100844.07;5069802;58;1138982;-76
2022/06/29 12:44:53;;;;;;;9.75;1.57;;;;;;;26.47;54.15;100846.78;5073346;57;1139275;-76
2022/06/29 12:50:01;;;;;;;5.67;1.27;;;;;;;26.68;54.31;100847.84;5073586;57;1138942;-75
2022/06/29 12:55:10;;;;;;;1.20;1.10;;;;;;;26.90;53.71;100844.27;5080014;57;1138974;-76
2022/06/29 13:00:17;;;;;;;8.70;1.50;;;;;;;26.98;51.10;100850.01;4998146;57;1138891;-76
2022/06/29 13:05:23;;;;;;;5.05;1.20;;;;;;;26.90;50.72;100847.81;5030726;57;1139088;-76
2022/06/29 13:10:29;;;;;;;4.62;1.15;;;;;;;26.71;52.30;100847.42;5031163;57;1138888;-75
2022/06/29 13:15:35;;;;;;;1.17;0.90;;;;;;;26.55;52.36;100861.48;5010352;57;1138943;-76
2022/06/29 13:20:40;;;;;;;2.83;1.50;;;;;;;26.45;52.13;100860.56;5089065;57;1139287;-75
2022/06/29 13:25:47;;;;;;;1.37;0.93;;;;;;;26.40;51.76;100862.27;5060921;57;1139058;-75
2022/06/29 13:30:53;;;;;;;2.52;1.00;;;;;;;26.35;52.96;100868.33;5007596;57;1139146;-76
2022/06/29 13:35:59;;;;;;;1.85;1.00;;;;;;;26.37;51.76;100869.47;4973133;59;1139288;-76
2022/06/29 13:41:05;;;;;;;2.17;1.27;;;;;;;26.49;51.29;100867.75;5028172;58;1138995;-76
2022/06/29 13:46:10;;;;;;;1.35;0.98;;;;;;;26.70;51.84;100870.70;5058428;57;1139294;-76
2022/06/29 13:51:16;;;;;;;3.45;1.15;;;;;;;26.58;50.78;100865.13;5058635;58;1139138;-75
2022/06/29 13:56:22;;;;;;;1.32;1.00;;;;;;;26.63;51.03;100858.51;5058777;58;1138999;-76
2022/06/29 14:01:28;;;;;;;2.95;1.47;;;;;;;26.74;50.26;100845.61;5058616;58;1138993;-76
2022/06/29 14:06:34;;;;;;;2.98;1.20;;;;;;;26.83;50.42;100841.61;5058807;58;1138982;-76
2022/06/29 14:11:40;;;;;;;0.85;0.85;;;;;;;26.96;51.02;100839.37;5058804;58;1139023;-76
2022/06/29 14:16:46;;;;;;;1.65;1.10;;;;;;;27.10;50.99;100836.87;5058541;58;1139148;-76
2022/06/29 14:21:52;;;;;;;4.70;1.20;;;;;;;27.24;50.53;100823.49;5047647;58;1138821;-76
2022/06/29 14:27:00;;;;;;;1.60;1.50;;;;;;;27.35;48.90;100824.66;5053985;58;1139084;-76
2022/06/29 14:32:06;;;;;;;1.75;1.25;;;;;;;27.25;48.94;100818.38;5054501;57;1138827;-75
2022/06/29 14:37:13;;;;;;;8.65;1.32;;;;;;;27.14;49.36;100798.72;5020383;58;1138916;-76
2022/06/29 14:42:24;;;;;;;2.00;1.15;;;;;;;26.81;49.24;100795.38;5053566;57;1138999;-76
2022/06/29 14:47:26;;;;;;;3.40;1.50;;;;;;;26.63;49.69;100792.86;5045790;58;1139002;-75
2022/06/29 14:52:36;;;;;;;1.27;1.05;;;;;;;26.58;50.04;100774.23;5016236;58;1139152;-76
2022/06/29 14:57:44;;;;;;;4.37;1.30;;;;;;;26.74;51.49;100764.72;5010657;59;1139244;-76
2022/06/29 15:02:51;;;;;;;8.45;1.40;;;;;;;27.12;51.22;100760.09;5010198;59;1139001;-76
2022/06/29 15:07:58;;;;;;;25.92;2.25;;;;;;;27.51;49.84;100755.34;5041858;58;1139002;-76
2022/06/29 15:13:05;;;;;;;3.60;1.45;;;;;;;27.67;48.86;100753.44;4956409;59;1140949;-75
2022/06/29 15:18:11;;;;;;;27.20;2.80;;;;;;;27.78;48.23;100747.80;4933886;59;1138985;-76
2022/06/29 15:23:17;;;;;;;2.30;1.42;;;;;;;27.82;47.63;100738.94;4942102;59;1141115;-76
2022/06/29 15:28:23;;;;;;;4.47;1.27;;;;;;;27.84;48.48;100746.34;4940306;59;1138992;-76
2022/06/29 15:38:52;;;;;;;5.80;1.92;;;;;;;27.96;47.90;100728.73;4874111;60;1136935;-76
2022/06/29 15:43:57;;;;;;;6.62;1.98;;;;;;;27.96;46.71;100717.34;4959879;59;1136943;-76
2022/06/29 15:49:04;;;;;;;1.92;1.42;;;;;;;27.97;45.81;100720.88;5065692;58;1137079;-76
2022/06/29 15:59:32;;;;;;;7.47;2.00;;;;;;;27.90;45.94;100697.05;5043115;58;1136949;-76
2022/06/29 16:04:38;;;;;;;2.72;1.77;;;;;;;27.85;45.10;100680.05;5013197;58;1136973;-76
2022/06/29 16:09:43;;;;;;;4.17;1.50;;;;;;;27.77;47.24;100663.23;4961713;59;1136847;-76
2022/06/29 16:14:49;;;;;;;2.05;1.15;;;;;;;27.75;47.05;100669.42;5036925;57;1137104;-76
2022/06/29 16:19:55;;;;;;;3.10;1.45;;;;;;;27.65;47.32;100668.05;5059313;57;1136883;-75
2022/06/29 16:25:05;;;;;;;5.97;2.00;;;;;;;27.53;46.38;100660.33;5065415;57;1136903;-76
2022/06/29 16:30:11;;;;;;;5.53;1.60;;;;;;;27.37;46.28;100654.14;4960679;59;1134911;-75
2022/06/29 16:35:17;;;;;;;6.62;1.62;;;;;;;27.28;47.20;100652.78;4949248;59;1134876;-76
2022/06/29 16:40:23;;;;;;;11.28;1.60;;;;;;;27.22;47.32;100650.44;5091854;57;1139022;-76
2022/06/29 16:45:29;;;;;;;6.00;3.00;;;;;;;27.16;47.67;100662.20;4970691;59;1141159;-76
2022/06/29 16:50:35;;;;;;;2.63;2.00;;;;;;;27.14;47.89;100659.41;4900792;59;1139451;-75
2022/06/29 16:55:41;;;;;;;3.72;1.62;;;;;;;27.20;47.64;100672.08;4920205;59;1139148;-76
2022/06/29 17:00:47;;;;;;;4.50;1.52;;;;;;;27.22;48.07;100669.44;5038040;58;1138978;-76
2022/06/29 17:05:53;;;;;;;11.90;2.05;;;;;;;27.29;47.99;100669.39;5031902;58;1139026;-76
2022/06/29 17:10:59;;;;;;;2.45;1.62;;;;;;;27.35;48.10;100656.25;5024332;57;1140953;-76
2022/06/29 17:16:06;;;;;;;3.75;1.30;;;;;;;27.38;47.53;100641.39;4944941;59;1139375;-76
2022/06/29 17:21:12;;;;;;;3.40;1.47;;;;;;;27.30;47.10;100627.59;5035298;57;1138954;-75
2022/06/29 17:26:18;;;;;;;2.10;1.90;;;;;;;27.19;47.40;100617.48;5063359;58;1139601;-76
2022/06/29 17:31:23;;;;;;;4.40;1.37;;;;;;;27.16;47.92;100632.34;4946221;59;1138923;-76
2022/06/29 17:36:29;;;;;;;3.65;1.57;;;;;;;27.06;48.18;100619.79;4954376;58;1139234;-76
2022/06/29 17:41:40;;;;;;;3.00;1.40;;;;;;;27.02;48.14;100634.05;4915745;59;1139014;-76
2022/06/29 17:46:42;;;;;;;3.55;1.60;;;;;;;26.93;48.00;100632.97;4915157;59;1139292;-75
2022/06/29 17:51:48;;;;;;;4.28;1.80;;;;;;;26.87;48.08;100625.70;4968666;59;1139286;-75
2022/06/29 17:56:54;;;;;;;1.65;1.42;;;;;;;26.78;48.75;100622.95;5084126;57;1139191;-76
2022/06/29 18:02:00;;;;;;;4.50;1.85;;;;;;;26.77;48.96;100619.09;5029360;58;1138944;-77
2022/06/29 18:07:06;;;;;;;1.87;1.37;;;;;;;26.72;48.96;100617.60;5049713;58;1139166;-65
2022/06/29 18:12:12;;;;;;;7.53;1.67;;;;;;;26.70;49.39;100624.60;5057674;58;1138893;-77
2022/06/29 18:17:18;;;;;;;9.73;2.00;;;;;;;26.72;49.85;100628.45;5094527;57;1139221;-76
2022/06/29 18:22:23;;;;;;;4.37;1.65;;;;;;;26.63;49.75;100628.72;5013595;58;1138965;-79
2022/06/29 18:27:29;;;;;;;13.03;2.45;;;;;;;26.57;50.45;100629.62;5008312;59;1139377;-79
2022/06/29 18:32:36;;;;;;;6.45;2.50;;;;;;;26.58;50.97;100630.45;5008548;59;1140941;-75
2022/06/29 18:37:42;;;;;;;6.75;2.02;;;;;;;26.50;51.15;100630.19;4968011;59;1139151;-78
2022/06/29 18:42:48;;;;;;;7.35;2.55;;;;;;;26.38;51.86;100639.25;5041191;58;1139008;-75
2022/06/29 18:47:54;;;;;;;7.78;3.65;;;;;;;26.28;52.33;100640.55;5043091;58;1139009;-78
2022/06/29 18:52:59;;;;;;;12.93;4.35;;;;;;;26.25;52.82;100638.79;5073020;57;1139062;-77
2022/06/29 18:58:06;;;;;;;24.40;4.30;;;;;;;26.13;52.90;100654.06;4983545;59;1141233;-77
2022/06/29 19:03:12;;;;;;;30.68;6.70;;;;;;;26.01;53.31;100670.72;4984162;59;1141390;-75
2022/06/29 19:08:18;;;;;;;32.55;8.98;;;;;;;25.77;54.05;100698.87;4966776;59;1141108;-75
2022/06/29 19:13:24;;;;;;;38.98;9.25;;;;;;;25.77;54.05;100698.87;4947167;58;1141206;-77
2022/06/29 19:18:30;;;;;;;30.95;8.23;;;;;;;25.70;55.40;100708.05;4864342;60;1141198;-75
2022/06/29 19:23:35;;;;;;;21.40;4.90;;;;;;;25.65;55.79;100710.06;4944787;59;1141011;-77
2022/06/29 19:28:41;;;;;;;16.32;4.87;;;;;;;25.64;56.94;100711.63;5066285;57;1141351;-77
2022/06/29 19:33:47;;;;;;;13.80;5.42;;;;;;;25.45;56.69;100703.30;5086887;57;1141348;-74
2022/06/29 19:38:54;;;;;;;11.25;3.40;;;;;;;25.32;57.23;100685.73;5140730;57;1141370;-77
2022/06/29 19:43:59;;;;;;;22.42;3.90;;;;;;;25.09;57.16;100687.52;5029940;57;1141128;-75
2022/06/29 19:49:07;;;;;;;26.77;5.92;;;;;;;24.90;57.95;100678.88;4995930;59;1141062;-79
2022/06/29 19:54:19;;;;;;;35.78;5.67;;;;;;;24.74;58.50;100677.42;5006027;58;1141257;-77
2022/06/29 19:59:20;;;;;;;23.95;6.53;;;;;;;24.67;59.46;100675.22;5002221;58;1139261;-77
2022/06/29 20:04:26;;;;;;;22.55;7.15;;;;;;;24.68;59.94;100673.34;4996593;59;1138996;-77
2022/06/29 20:09:34;;;;;;;47.73;7.78;;;;;;;24.62;59.79;100679.05;4998825;58;1138988;-76
2022/06/29 20:14:40;;;;;;;21.05;6.97;;;;;;;24.55;60.00;100670.11;4981571;59;1139044;-75
2022/06/29 20:19:46;;;;;;;12.95;5.55;;;;;;;24.42;59.89;100668.75;5003183;58;1138956;-76
2022/06/29 20:24:52;;;;;;;23.62;6.03;;;;;;;24.22;60.00;100652.97;4988131;58;1138951;-76
2022/06/29 20:29:57;;;;;;;35.23;8.53;;;;;;;23.97;60.59;100649.48;4871217;59;1138924;-76
2022/06/29 20:35:04;;;;;;;39.63;9.50;;;;;;;23.78;61.29;100642.97;4998359;59;1139085;-76
2022/06/29 20:40:11;;;;;;;15.00;4.70;;;;;;;23.64;62.06;100612.06;4887479;59;1138811;-75
2022/06/29 20:45:22;;;;;;;7.65;2.75;;;;;;;23.55;62.76;100613.25;4959359;59;1139516;-76
2022/06/29 20:50:32;;;;;;;13.50;4.22;;;;;;;23.49;62.85;100610.31;4961794;59;1137433;-76
2022/06/29 20:55:37;;;;;;;9.23;2.92;;;;;;;23.41;62.85;100609.63;4895361;59;1139602;-76
2022/06/29 21:00:43;;;;;;;11.63;3.52;;;;;;;23.39;63.17;100604.43;4907220;59;1136955;-80
2022/06/29 21:05:49;;;;;;;4.95;2.87;;;;;;;23.36;62.99;100601.33;4904295;59;1139082;-76
2022/06/29 21:10:57;;;;;;;5.62;2.45;;;;;;;23.30;62.63;100611.04;4904939;59;1136915;-76
2022/06/29 21:16:04;;;;;;;3.08;2.10;;;;;;;23.41;62.63;100625.31;4935965;59;1136974;-77
2022/06/29 21:21:14;;;;;;;6.35;1.87;;;;;;;23.52;62.66;100623.13;4997292;58;1135361;-76
2022/06/29 21:26:17;;;;;;;6.95;2.62;;;;;;;23.55;62.28;100627.59;4945003;59;1134759;-77
2022/06/29 21:31:23;;;;;;;3.58;2.30;;;;;;;23.53;62.24;100654.50;4981519;58;1139325;-77
2022/06/29 21:36:28;;;;;;;3.10;2.50;;;;;;;23.52;62.37;100647.43;4997740;58;1139381;-78
2022/06/29 21:41:34;;;;;;;5.67;2.77;;;;;;;23.41;62.38;100647.42;4976010;58;1138975;-77
2022/06/29 21:46:39;;;;;;;13.33;3.10;;;;;;;23.28;62.44;100647.35;4973280;58;1139034;-76
2022/06/29 21:51:45;;;;;;;7.97;2.40;;;;;;;23.17;62.75;100659.54;4943532;58;1141305;-76
2022/06/29 21:56:50;;;;;;;5.08;3.17;;;;;;;23.21;63.11;100664.03;4976592;57;1139162;-77
2022/06/29 22:01:56;;;;;;;3.90;2.90;;;;;;;23.15;62.71;100662.95;4971634;58;1139032;-77
2022/06/29 22:07:02;;;;;;;6.22;2.77;;;;;;;23.10;62.77;100653.25;4944295;58;1139037;-76
2022/06/29 22:12:08;;;;;;;3.50;2.20;;;;;;;22.98;63.08;100653.48;4961270;59;1138968;-77
2022/06/29 22:17:14;;;;;;;3.75;3.05;;;;;;;22.86;63.25;100641.57;4931898;58;1139290;-77
2022/06/29 22:22:19;;;;;;;2.98;2.67;;;;;;;22.87;63.95;100637.84;4952928;58;1138856;-77
2022/06/29 22:27:25;;;;;;;6.45;3.05;;;;;;;22.86;63.74;100630.27;4928427;58;1139116;-77
2022/06/29 22:32:31;;;;;;;16.40;3.67;;;;;;;22.82;63.67;100642.98;4926490;58;1138997;-77
2022/06/29 22:37:37;;;;;;;5.65;3.35;;;;;;;22.76;63.91;100645.94;4964426;58;1141156;-76
2022/06/29 22:42:43;;;;;;;7.87;3.30;;;;;;;22.67;63.83;100643.04;5001462;58;1139030;-76
2022/06/29 22:47:49;;;;;;;4.35;3.22;;;;;;;22.50;64.25;100634.39;5058325;57;1139320;-77
2022/06/29 22:52:54;;;;;;;4.70;3.70;;;;;;;22.38;64.66;100644.86;4936247;58;1139360;-77
2022/06/29 22:58:00;;;;;;;4.33;3.30;;;;;;;22.36;65.35;100664.94;4889905;60;1139293;-77
2022/06/29 23:03:05;;;;;;;5.47;3.42;;;;;;;22.37;65.50;100663.91;4931863;59;1139264;-77
2022/06/29 23:08:12;;;;;;;3.55;2.87;;;;;;;22.21;65.65;100636.70;5000499;58;1138916;-77
2022/06/29 23:13:18;;;;;;;10.05;3.02;;;;;;;22.11;65.69;100634.84;5045334;58;1139020;-77
2022/06/29 23:18:24;;;;;;;2.77;2.55;;;;;;;22.04;65.87;100639.31;5045329;58;1141133;-76
2022/06/29 23:23:30;;;;;;;4.24;3.46;;;;;;;21.97;65.95;100647.31;5045392;58;1138993;-77
2022/06/29 23:28:37;;;;;;;9.38;3.50;;;;;;;21.94;66.18;100636.91;5050645;58;1139277;-77
2022/06/29 23:33:43;;;;;;;6.65;3.62;;;;;;;21.82;66.31;100606.12;5058201;58;1138901;-77